Pagrindinis puslapis
METAR-TAF:

METAR-TAF

Oro uostai :

East Jakarta, Indonezija

platuma: 06-15-59S, ilguma: 106-53-28E, Aukštis: 25 m

Dabartinis oras

Ataskaita buvo paskelbta 8 valandos ir 29 minutes, ne 12:00 UTC
Vėjas 7 kt iš Rytų
Temperatūra 28°C
Drėgmė 62%
Slėgis 1011 hPa
Matomumas: 6000 m
Išsisklaidę debesys ne aukštis 2000 ft

METAR: WIHH 201200Z 08007KT 6000 SCT020 28/20 Q1011 NOSIG

Laikas: 03:29 (20:29 UTC)

Prognozė

Ataskaita buvo paskelbta 3 valandos ir 29 minutes, ne 17:00 UTC
Prognozė galioja nuo 20 metu 18 UTC su 21 metu 18 UTC
Vėjas 5 kt iš Rytų/Pietryčių
Matomumas: 5000 m
Mažai debesys ne aukštis 2200 ft
migla
Tapsmas
nuo 21 metu 02 UTC su 21 metu 04 UTC
Vėjas 10 kt iš Rytų/Šiaurės Rytų

TAF: WIHH 201700Z 2018/2118 12005KT 5000 HZ FEW022 BECMG 2102/2104 07010KT

Orai ataskaitas ir orų prognozės (METAR, TAF).

turimą stotys yra geltonos ir raudonos taškus žemėlapyje.

Perkelti pele per norėdami pamatyti stoties vardą.

Tada spustelėkite, norėdami matyti oro stebėjimo ir prognozės.

Norėdami pakeisti žemėlapį: spustelėkite ant žalios mygtukų su juodo kryžiaus žemyn,; žalią mygtuką su brūkšneliu, jei norite nutolinti; arba žalių rodyklių gretimoms žemėlapius.


METAR-TAF: